Stoney Stanton, United Kingdom
Current Conditions -  °F | °C
As of 8:20 PM on Thursday 23 Oct 2014 (Local Time) from EGBE Reporting Station
Scattered Clouds Scattered Clouds  
Wind Chill: 59°   Ceiling: Unl
Heat Index: 59°   Visibility: 6mi
Dew Point: 55°   Wind: 10mph
Humidity: 88%   Direction: 210°SSW
Pressure: 29.97"   Gusts: NA
Location:  52.55°N, 1.28°W
Report Text: EGBE 231920Z 21009KT 9999 FEW011 SCT037 15/13 Q1015
Loading
Personal Weather Stations






























Interactive Weather Map
Tropical Storm Tracking
New forecast layout! Learn more

10-Day Weather Forecast

Advertisements
Track Severe Weather on mobile